createdAt,value
2023-01-23T00:00:23.063Z,7.03
2023-01-23T00:05:25.395Z,3.63
2023-01-23T00:10:27.646Z,11.88
2023-01-23T00:15:31.214Z,5.57
2023-01-23T00:20:33.328Z,6.50
2023-01-23T00:25:35.911Z,10.60
2023-01-23T00:30:39.492Z,4.10
2023-01-23T00:35:41.637Z,3.47
2023-01-23T00:40:43.801Z,7.50
2023-01-23T00:45:47.317Z,7.20
2023-01-23T00:50:49.528Z,5.43
2023-01-23T00:55:51.709Z,8.30
2023-01-23T01:00:55.319Z,4.03
2023-01-23T01:05:57.883Z,4.22
2023-01-23T01:11:00.084Z,4.95
2023-01-23T01:16:04.264Z,6.53
2023-01-23T01:21:09.703Z,6.03
2023-01-23T01:26:11.889Z,5.82
2023-01-23T01:31:16.846Z,6.55
2023-01-23T01:36:21.973Z,6.32
2023-01-23T01:41:24.136Z,5.05
2023-01-23T01:46:27.914Z,5.03
2023-01-23T01:51:32.351Z,5.55
2023-01-23T01:56:39.880Z,7.00
2023-01-23T02:01:47.423Z,5.22
2023-01-23T02:06:52.701Z,7.43
2023-01-23T02:11:54.974Z,5.70
2023-01-23T02:16:58.468Z,8.75
2023-01-23T02:22:06.986Z,7.32
2023-01-23T02:27:10.542Z,7.30
2023-01-23T02:32:12.694Z,7.47
2023-01-23T02:37:15.273Z,5.85
2023-01-23T02:42:18.936Z,7.07
2023-01-23T02:47:21.090Z,3.47
2023-01-23T02:52:23.589Z,5.80
2023-01-23T02:57:27.100Z,4.88
2023-01-23T03:02:29.286Z,8.23
2023-01-23T03:07:31.469Z,4.70
2023-01-23T03:12:35.006Z,5.70
2023-01-23T03:17:37.113Z,4.55
2023-01-23T03:22:39.189Z,4.68
2023-01-23T03:27:42.788Z,6.75
2023-01-23T03:32:45.980Z,2.65
2023-01-23T03:37:49.343Z,5.07
2023-01-23T03:42:52.817Z,5.57
2023-01-23T03:47:54.937Z,5.10
2023-01-23T03:52:57.070Z,5.88
2023-01-23T03:58:00.599Z,7.90
2023-01-23T04:03:02.794Z,8.05
2023-01-23T04:08:05.331Z,4.88
2023-01-23T04:13:08.917Z,5.88
2023-01-23T04:18:11.104Z,6.88
2023-01-23T04:23:13.393Z,5.22
2023-01-23T04:28:17.157Z,5.68
2023-01-23T04:33:19.895Z,5.72
2023-01-23T04:38:22.336Z,6.68
2023-01-23T04:43:26.126Z,8.70
2023-01-23T04:48:28.246Z,8.07
2023-01-23T04:53:30.368Z,6.15
2023-01-23T04:58:33.977Z,9.35
2023-01-23T05:03:37.042Z,5.32
2023-01-23T05:08:39.181Z,7.68
2023-01-23T05:13:42.819Z,5.38
2023-01-23T05:18:46.299Z,6.28
2023-01-23T05:23:48.398Z,5.60
2023-01-23T05:28:51.945Z,5.78
2023-01-23T05:33:54.076Z,7.00
2023-01-23T05:38:56.382Z,9.30
2023-01-23T05:43:59.923Z,5.95
2023-01-23T05:49:02.025Z,8.77
2023-01-23T05:54:04.546Z,6.28
2023-01-23T05:59:08.125Z,9.02
2023-01-23T06:04:10.305Z,12.85
2023-01-23T06:09:12.454Z,10.73
2023-01-23T06:14:16.060Z,11.40
2023-01-23T06:19:18.192Z,13.57
2023-01-23T06:24:20.307Z,11.65
2023-01-23T06:29:24.068Z,15.05
2023-01-23T06:34:26.272Z,13.60
2023-01-23T06:39:28.639Z,12.63
2023-01-23T06:44:32.340Z,11.23
2023-01-23T06:49:34.527Z,14.82
2023-01-23T06:54:36.806Z,24.67
2023-01-23T06:59:40.824Z,15.52
2023-01-23T07:04:42.963Z,13.98
2023-01-23T07:09:45.046Z,13.00
2023-01-23T07:14:48.590Z,14.68
2023-01-23T07:19:51.059Z,11.38
2023-01-23T07:24:53.200Z,13.23
2023-01-23T07:29:56.729Z,16.42
2023-01-23T07:34:58.866Z,14.48
2023-01-23T07:40:01.174Z,15.02
2023-01-23T07:45:05.458Z,15.35
2023-01-23T07:50:09.648Z,14.27
2023-01-23T07:55:11.781Z,15.07
2023-01-23T08:00:17.474Z,15.40
2023-01-23T08:05:19.810Z,14.27
2023-01-23T08:10:22.259Z,15.82
2023-01-23T08:15:26.134Z,15.18
2023-01-23T08:20:28.202Z,14.68
2023-01-23T08:25:30.390Z,11.73
2023-01-23T08:30:33.930Z,15.80
2023-01-23T08:35:36.188Z,13.95
2023-01-23T08:40:38.372Z,13.23
2023-01-23T08:45:43.043Z,13.60
2023-01-23T08:50:45.600Z,14.95
2023-01-23T08:55:47.775Z,16.17
2023-01-23T09:00:53.759Z,17.38
2023-01-23T09:06:00.134Z,15.68
2023-01-23T09:11:03.559Z,20.27
2023-01-23T09:16:08.594Z,13.88
2023-01-23T09:21:13.202Z,17.85
2023-01-23T09:26:16.619Z,15.00
2023-01-23T09:31:21.354Z,15.57
2023-01-23T09:36:37.513Z,14.40
2023-01-23T09:41:46.464Z,19.00
2023-01-23T09:46:52.074Z,13.65
2023-01-23T09:52:00.585Z,15.88
2023-01-23T09:57:13.268Z,15.20
2023-01-23T10:02:19.209Z,15.50
2023-01-23T10:07:38.852Z,15.82
2023-01-23T10:12:53.495Z,14.07
2023-01-23T10:18:09.871Z,13.63
2023-01-23T10:23:26.358Z,14.47
2023-01-23T10:28:34.191Z,14.82
2023-01-23T10:33:42.972Z,14.23
2023-01-23T10:38:52.991Z,13.30
2023-01-23T10:43:55.890Z,16.35
2023-01-23T10:49:00.790Z,11.80
2023-01-23T10:54:13.036Z,12.95
2023-01-23T10:59:32.995Z,14.98
2023-01-23T11:04:37.261Z,14.10
2023-01-23T11:09:52.005Z,13.95
2023-01-23T11:15:16.983Z,14.43
2023-01-23T11:20:27.553Z,12.55
2023-01-23T11:25:32.712Z,12.05
2023-01-23T11:30:45.163Z,12.27
2023-01-23T11:36:13.471Z,14.50
2023-01-23T11:41:15.904Z,14.23
2023-01-23T11:46:38.148Z,11.15
2023-01-23T11:51:53.895Z,13.30
2023-01-23T11:57:02.363Z,12.20
2023-01-23T12:02:24.291Z,12.90
2023-01-23T12:07:28.518Z,13.93
2023-01-23T12:13:00.148Z,12.90
2023-01-23T12:18:13.808Z,14.27
2023-01-23T12:23:34.746Z,11.38
2023-01-23T12:28:55.617Z,12.05
2023-01-23T12:34:11.845Z,14.07
2023-01-23T12:39:26.959Z,11.10
2023-01-23T12:44:33.847Z,11.10
2023-01-23T12:49:43.331Z,7.20
2023-01-23T12:54:51.221Z,8.07
2023-01-23T12:59:59.389Z,9.77
2023-01-23T13:05:13.513Z,8.73
2023-01-23T13:10:46.184Z,6.82
2023-01-23T13:16:03.298Z,9.88
2023-01-23T13:26:27.475Z,6.10
2023-01-23T13:31:50.814Z,10.13
2023-01-23T13:36:54.637Z,7.78
2023-01-23T13:42:35.450Z,7.00
2023-01-23T14:25:17.582Z,6.53
2023-01-23T14:30:24.615Z,5.15
2023-01-23T14:35:28.889Z,5.53
2023-01-23T14:40:40.327Z,6.15
2023-01-23T14:45:58.470Z,7.97
2023-01-23T14:51:07.536Z,8.73
2023-01-23T14:56:12.666Z,7.20
2023-01-23T15:01:16.618Z,6.70
2023-01-23T15:06:21.737Z,7.40
2023-01-23T15:11:28.586Z,7.05
2023-01-23T15:16:36.834Z,8.77
2023-01-23T15:21:40.756Z,6.80
2023-01-23T15:26:44.463Z,8.52
2023-01-23T15:31:50.433Z,9.13
2023-01-23T15:36:59.028Z,7.85
2023-01-23T15:42:03.482Z,8.43
2023-01-23T15:47:07.436Z,7.35
2023-01-23T15:52:22.335Z,8.40
2023-01-23T15:57:24.627Z,13.90
2023-01-23T16:02:31.589Z,11.27
2023-01-23T16:07:37.873Z,11.38
2023-01-23T16:12:40.209Z,13.18
2023-01-23T16:17:44.052Z,11.50
2023-01-23T16:22:49.885Z,11.23
2023-01-23T16:27:52.102Z,10.45
2023-01-23T16:32:57.198Z,11.50
2023-01-23T16:37:59.847Z,11.23
2023-01-23T16:43:02.006Z,10.77
2023-01-23T16:48:07.472Z,11.25
2023-01-23T16:53:17.726Z,10.93
2023-01-23T16:58:22.601Z,13.05
2023-01-23T17:03:29.207Z,9.18
2023-01-23T17:08:31.376Z,11.93
2023-01-23T17:13:34.803Z,11.27
2023-01-23T17:18:38.444Z,9.57
2023-01-23T17:23:40.591Z,11.77
2023-01-23T17:28:42.748Z,10.38
2023-01-23T17:33:46.581Z,11.57
2023-01-23T17:38:49.151Z,10.80
2023-01-23T17:43:51.470Z,14.05
2023-01-23T17:48:56.093Z,8.30
2023-01-23T17:53:58.219Z,11.18
2023-01-23T17:59:00.409Z,11.27
2023-01-23T18:04:10.824Z,16.75
2023-01-23T18:09:13.122Z,9.35
2023-01-23T18:14:38.303Z,11.30
2023-01-23T18:19:42.357Z,11.75
2023-01-23T18:24:45.050Z,14.07
2023-01-23T18:30:20.323Z,25.25
2023-01-23T18:35:37.479Z,12.95
2023-01-23T18:40:48.799Z,12.10
2023-01-23T18:45:55.706Z,12.60
2023-01-23T18:51:18.299Z,13.85
2023-01-23T18:56:52.206Z,23.70
2023-01-23T19:02:12.306Z,14.27
2023-01-23T19:07:17.920Z,17.95
2023-01-23T19:12:30.076Z,12.23
2023-01-23T19:17:43.269Z,17.30
2023-01-23T19:22:54.440Z,15.70
2023-01-23T19:28:02.760Z,14.45
2023-01-23T19:33:05.645Z,13.43
2023-01-23T19:38:09.883Z,18.80
2023-01-23T19:43:15.373Z,35.80
2023-01-23T19:48:21.771Z,15.93
2023-01-23T19:53:28.154Z,13.70
2023-01-23T19:58:32.240Z,18.03
2023-01-23T20:03:36.930Z,14.18
2023-01-23T20:08:56.615Z,13.60
2023-01-23T20:13:59.204Z,15.15
2023-01-23T20:19:03.772Z,18.42
2023-01-23T20:24:08.399Z,16.55
2023-01-23T20:29:11.900Z,15.75
2023-01-23T20:34:15.672Z,19.77
2023-01-23T20:39:19.559Z,19.27
2023-01-23T20:44:25.518Z,15.50
2023-01-23T20:49:27.987Z,18.08
2023-01-23T20:54:31.670Z,19.50
2023-01-23T20:59:33.797Z,16.88
2023-01-23T21:04:40.707Z,17.80
2023-01-23T21:09:48.184Z,18.67
2023-01-23T21:14:53.812Z,18.10
2023-01-23T21:20:02.485Z,22.63
2023-01-23T21:25:07.337Z,19.45
2023-01-23T21:30:10.798Z,17.08
2023-01-23T21:35:12.977Z,15.88
2023-01-23T21:40:16.823Z,17.42
2023-01-23T21:45:19.104Z,18.35
2023-01-23T21:50:21.395Z,16.95
2023-01-23T21:55:24.951Z,19.58
2023-01-23T22:00:27.122Z,18.02
2023-01-23T22:05:29.281Z,16.40
2023-01-23T22:10:33.633Z,16.00
2023-01-23T22:15:35.734Z,16.42
2023-01-23T22:20:38.198Z,18.13
2023-01-23T22:25:41.699Z,19.95
2023-01-23T22:30:43.955Z,21.85
2023-01-23T22:35:46.787Z,19.15
2023-01-23T22:40:59.385Z,17.80
2023-01-23T22:46:09.635Z,19.10
2023-01-23T22:51:15.444Z,21.65
2023-01-23T22:56:19.322Z,22.38
2023-01-23T23:01:22.859Z,21.63
2023-01-23T23:06:25.103Z,24.33
2023-01-23T23:11:28.914Z,17.10
2023-01-23T23:16:32.034Z,18.83
2023-01-23T23:21:36.185Z,22.27
2023-01-23T23:26:39.822Z,22.13
2023-01-23T23:31:42.354Z,19.55
2023-01-23T23:36:44.606Z,19.35
2023-01-23T23:41:48.181Z,21.15
2023-01-23T23:46:50.332Z,20.92
2023-01-23T23:51:52.431Z,18.73
2023-01-23T23:56:55.931Z,17.00
